createdAt,value
2023-03-22T00:01:35.191Z,0.97
2023-03-22T00:04:07.976Z,1.00
2023-03-22T00:06:37.071Z,0.90
2023-03-22T00:09:06.837Z,0.90
2023-03-22T00:11:36.793Z,4.27
2023-03-22T00:14:08.652Z,1.27
2023-03-22T00:16:40.890Z,1.10
2023-03-22T00:19:12.529Z,0.90
2023-03-22T00:21:42.927Z,0.93
2023-03-22T00:24:12.726Z,0.90
2023-03-22T00:26:44.996Z,0.97
2023-03-22T00:29:15.206Z,0.90
2023-03-22T00:31:44.952Z,0.90
2023-03-22T00:34:17.557Z,1.00
2023-03-22T00:36:48.661Z,0.70
2023-03-22T00:39:18.827Z,1.03
2023-03-22T00:41:48.056Z,1.00
2023-03-22T00:44:16.546Z,0.90
2023-03-22T00:46:45.041Z,1.37
2023-03-22T00:49:15.256Z,0.80
2023-03-22T00:51:43.724Z,0.80
2023-03-22T00:54:13.575Z,1.03
2023-03-22T00:56:45.764Z,1.53
2023-03-22T00:59:15.694Z,1.90
2023-03-22T01:01:47.267Z,1.00
2023-03-22T01:04:28.215Z,1.10
2023-03-22T01:07:02.058Z,0.97
2023-03-22T01:09:31.114Z,3.50
2023-03-22T01:11:59.971Z,1.20
2023-03-22T01:14:28.735Z,2.00
2023-03-22T01:16:57.736Z,1.00
2023-03-22T01:19:28.088Z,0.90
2023-03-22T01:21:56.763Z,1.70
2023-03-22T01:24:27.136Z,0.77
2023-03-22T01:26:56.663Z,0.83
2023-03-22T01:29:26.400Z,2.93
2023-03-22T01:31:55.004Z,1.00
2023-03-22T01:34:23.616Z,1.50
2023-03-22T01:36:53.557Z,1.00
2023-03-22T01:39:22.169Z,1.70
2023-03-22T01:41:50.723Z,3.00
2023-03-22T01:44:20.807Z,2.33
2023-03-22T01:46:50.411Z,1.13
2023-03-22T01:49:21.600Z,0.90
2023-03-22T01:51:51.203Z,4.10
2023-03-22T01:54:30.396Z,1.37
2023-03-22T01:56:59.979Z,1.13
2023-03-22T01:59:31.033Z,1.00
2023-03-22T02:02:04.335Z,0.50
2023-03-22T02:04:38.320Z,0.90
2023-03-22T02:07:16.217Z,0.83
2023-03-22T02:09:48.929Z,0.80
2023-03-22T02:12:27.576Z,1.67
2023-03-22T02:15:05.824Z,0.80
2023-03-22T02:17:42.471Z,0.63
2023-03-22T02:20:31.749Z,0.80
2023-03-22T02:23:19.208Z,0.90
2023-03-22T02:26:08.880Z,0.70
2023-03-22T02:28:45.184Z,0.93
2023-03-22T02:31:20.455Z,2.00
2023-03-22T02:34:06.966Z,1.53
2023-03-22T02:37:00.143Z,1.30
2023-03-22T02:39:33.782Z,1.10
2023-03-22T02:42:09.140Z,1.20
2023-03-22T02:44:42.401Z,1.23
2023-03-22T02:47:16.816Z,1.40
2023-03-22T02:49:49.602Z,1.07
2023-03-22T02:52:21.007Z,1.23
2023-03-22T02:54:52.903Z,1.07
2023-03-22T02:57:25.988Z,1.50
2023-03-22T02:59:55.227Z,1.50
2023-03-22T03:02:24.247Z,1.67
2023-03-22T03:04:53.541Z,1.47
2023-03-22T03:07:23.952Z,0.90
2023-03-22T03:09:53.876Z,1.70
2023-03-22T03:12:23.748Z,2.03
2023-03-22T03:14:52.799Z,1.20
2023-03-22T03:17:26.235Z,1.27
2023-03-22T03:19:59.564Z,1.17
2023-03-22T03:22:32.316Z,1.87
2023-03-22T03:25:10.344Z,1.60
2023-03-22T03:27:44.908Z,2.27
2023-03-22T03:30:19.432Z,1.67
2023-03-22T03:32:51.913Z,3.40
2023-03-22T03:35:26.260Z,2.77
2023-03-22T03:37:59.151Z,1.93
2023-03-22T03:40:32.756Z,2.47
2023-03-22T03:43:04.010Z,3.20
2023-03-22T03:45:35.390Z,5.87
2023-03-22T03:48:06.652Z,3.37
2023-03-22T03:50:35.585Z,5.07
2023-03-22T03:53:04.183Z,4.23
2023-03-22T03:55:35.520Z,4.93
2023-03-22T03:58:05.981Z,6.27
2023-03-22T04:00:36.444Z,7.40
2023-03-22T04:03:07.721Z,3.47
2023-03-22T04:05:37.098Z,5.73
2023-03-22T04:08:07.899Z,4.27
2023-03-22T04:10:40.045Z,9.67
2023-03-22T04:13:11.517Z,8.63
2023-03-22T04:15:43.583Z,8.00
2023-03-22T04:18:14.502Z,5.73
2023-03-22T04:20:52.250Z,6.03
2023-03-22T04:23:24.269Z,5.90
2023-03-22T04:26:02.129Z,4.67
2023-03-22T04:28:34.111Z,5.97
2023-03-22T04:31:06.001Z,8.33
2023-03-22T04:33:39.786Z,6.57
2023-03-22T04:36:12.329Z,4.57
2023-03-22T04:38:43.082Z,6.43
2023-03-22T04:41:15.087Z,6.73
2023-03-22T04:43:48.538Z,5.40
2023-03-22T04:46:17.615Z,6.83
2023-03-22T04:48:48.576Z,6.53
2023-03-22T04:51:19.202Z,7.67
2023-03-22T04:53:49.749Z,6.53
2023-03-22T04:56:23.784Z,5.63
2023-03-22T04:58:52.327Z,4.40
2023-03-22T05:01:21.049Z,6.07
2023-03-22T05:03:49.706Z,5.53
2023-03-22T05:06:18.487Z,4.10
2023-03-22T05:08:46.977Z,7.90
2023-03-22T05:11:17.805Z,6.33
2023-03-22T05:13:47.854Z,3.97
2023-03-22T05:16:16.492Z,7.43
2023-03-22T05:18:45.653Z,7.53
2023-03-22T05:21:15.444Z,7.47
2023-03-22T05:23:44.138Z,7.90
2023-03-22T05:26:18.375Z,12.77
2023-03-22T05:28:49.648Z,9.13
2023-03-22T05:31:22.213Z,7.60
2023-03-22T05:33:51.655Z,4.50
2023-03-22T05:36:23.155Z,6.07
2023-03-22T05:38:53.404Z,3.57
2023-03-22T05:41:22.463Z,2.30
2023-03-22T05:43:57.880Z,1.90
2023-03-22T05:46:26.633Z,1.50
2023-03-22T05:48:59.259Z,0.90
2023-03-22T05:51:30.219Z,1.77
2023-03-22T05:54:02.406Z,0.90
2023-03-22T05:56:33.099Z,1.00
2023-03-22T05:59:03.402Z,0.90
2023-03-22T06:01:33.586Z,0.97
2023-03-22T06:04:02.307Z,0.80
2023-03-22T06:06:30.962Z,0.73
2023-03-22T06:09:10.614Z,0.80
2023-03-22T06:11:44.799Z,0.70
2023-03-22T06:14:14.780Z,0.60
2023-03-22T06:16:43.314Z,0.50
2023-03-22T06:19:11.912Z,0.70
2023-03-22T06:21:40.551Z,0.53
2023-03-22T06:24:09.126Z,0.70
2023-03-22T06:26:39.637Z,0.57
2023-03-22T06:29:10.669Z,0.60
2023-03-22T06:31:43.480Z,0.53
2023-03-22T06:34:16.312Z,0.53
2023-03-22T06:36:47.927Z,0.50
2023-03-22T06:39:17.733Z,0.60
2023-03-22T06:41:48.466Z,0.37
2023-03-22T06:44:20.123Z,0.57
2023-03-22T06:46:52.706Z,0.70
2023-03-22T06:49:26.034Z,0.50
2023-03-22T06:51:54.879Z,0.53
2023-03-22T06:54:25.631Z,0.60
2023-03-22T06:56:55.416Z,0.70
2023-03-22T06:59:24.018Z,0.90
2023-03-22T07:01:54.203Z,0.70
2023-03-22T07:04:22.935Z,0.60
2023-03-22T07:06:51.448Z,0.70
2023-03-22T07:09:20.405Z,0.60
2023-03-22T07:11:48.991Z,0.80
2023-03-22T07:14:17.471Z,0.73
2023-03-22T07:16:46.072Z,0.80
2023-03-22T07:19:17.511Z,0.57
2023-03-22T07:21:46.274Z,0.60
2023-03-22T07:24:17.042Z,0.80
2023-03-22T07:26:49.144Z,0.70
2023-03-22T07:29:19.146Z,0.90
2023-03-22T07:31:47.911Z,0.90
2023-03-22T07:34:19.779Z,0.70
2023-03-22T07:36:49.260Z,0.77
2023-03-22T07:39:18.194Z,0.70
2023-03-22T07:41:47.436Z,0.73
2023-03-22T07:44:18.196Z,0.80
2023-03-22T07:46:50.307Z,0.80
2023-03-22T07:49:21.579Z,0.80
2023-03-22T07:51:52.178Z,0.80
2023-03-22T07:54:32.830Z,0.57
2023-03-22T07:57:04.442Z,0.90
2023-03-22T07:59:33.178Z,0.70
2023-03-22T08:02:02.418Z,0.70
2023-03-22T08:04:34.608Z,0.90
2023-03-22T08:07:03.596Z,0.80
2023-03-22T08:09:32.193Z,0.70
2023-03-22T08:12:04.576Z,0.63
2023-03-22T08:14:37.035Z,0.70
2023-03-22T08:17:07.941Z,0.70
2023-03-22T08:19:37.993Z,0.90
2023-03-22T08:22:06.908Z,0.90
2023-03-22T08:24:37.655Z,0.80
2023-03-22T08:27:09.449Z,0.80
2023-03-22T08:29:39.871Z,0.73
2023-03-22T08:32:09.181Z,0.80
2023-03-22T08:34:42.238Z,0.80
2023-03-22T08:37:13.384Z,0.90
2023-03-22T08:39:42.398Z,0.80
2023-03-22T08:42:11.980Z,0.83
2023-03-22T08:44:42.953Z,0.93
2023-03-22T08:47:13.324Z,0.80
2023-03-22T08:49:43.916Z,0.80
2023-03-22T08:52:12.634Z,0.80
2023-03-22T08:54:44.195Z,0.70
2023-03-22T08:57:16.227Z,0.83
2023-03-22T08:59:46.354Z,0.60
2023-03-22T09:02:17.675Z,0.73
2023-03-22T09:04:50.885Z,0.70
2023-03-22T09:07:22.340Z,0.70
2023-03-22T09:09:51.911Z,0.90
2023-03-22T09:12:20.856Z,0.80
2023-03-22T09:14:50.115Z,0.90
2023-03-22T09:17:22.455Z,0.97
2023-03-22T09:20:09.431Z,1.00
2023-03-22T09:22:43.343Z,1.10
2023-03-22T09:25:14.673Z,1.17
2023-03-22T09:27:45.320Z,1.53
2023-03-22T09:30:14.913Z,0.87
2023-03-22T09:32:45.735Z,1.20
2023-03-22T09:35:16.948Z,0.93
2023-03-22T09:37:47.840Z,1.00
2023-03-22T09:40:17.834Z,1.00
2023-03-22T09:42:48.514Z,1.13
2023-03-22T09:45:20.570Z,1.10
2023-03-22T09:47:50.690Z,1.00
2023-03-22T09:50:22.420Z,1.00
2023-03-22T09:52:51.605Z,1.20
2023-03-22T09:55:21.612Z,1.10
2023-03-22T09:57:56.488Z,1.40
2023-03-22T10:00:29.155Z,1.20
2023-03-22T10:03:03.491Z,1.37
2023-03-22T10:05:37.550Z,1.20
2023-03-22T10:08:17.893Z,1.30
2023-03-22T10:10:46.556Z,1.50
2023-03-22T10:13:19.997Z,1.30
2023-03-22T10:15:49.339Z,1.27
2023-03-22T10:18:20.058Z,1.37
2023-03-22T10:20:53.953Z,1.20
2023-03-22T10:23:25.565Z,1.50
2023-03-22T10:25:54.812Z,1.37
2023-03-22T10:28:25.615Z,1.40
2023-03-22T10:30:55.605Z,1.40
2023-03-22T10:33:28.915Z,1.40
2023-03-22T10:35:58.887Z,1.50
2023-03-22T10:38:28.381Z,1.43
2023-03-22T10:40:59.197Z,1.30
2023-03-22T10:43:29.900Z,1.70
2023-03-22T10:45:58.887Z,1.80
2023-03-22T10:48:29.839Z,2.03
2023-03-22T10:51:00.043Z,1.93
2023-03-22T10:53:31.991Z,1.60
2023-03-22T10:56:03.218Z,1.77
2023-03-22T10:58:34.702Z,1.50
2023-03-22T11:01:06.807Z,1.70
2023-03-22T11:03:40.446Z,1.70
2023-03-22T11:06:11.649Z,1.60
2023-03-22T11:08:41.099Z,1.80
2023-03-22T11:11:15.677Z,1.40
2023-03-22T11:13:45.547Z,1.60
2023-03-22T11:16:19.182Z,1.73
2023-03-22T11:18:48.068Z,1.47
2023-03-22T11:21:19.178Z,1.30
2023-03-22T11:23:52.590Z,1.60
2023-03-22T11:26:27.811Z,1.30
2023-03-22T11:29:05.256Z,1.37
2023-03-22T11:31:54.289Z,0.93
2023-03-22T11:34:28.417Z,1.20
2023-03-22T11:37:01.983Z,1.10
2023-03-22T11:39:32.072Z,1.00
2023-03-22T11:42:04.209Z,1.07
2023-03-22T11:44:39.845Z,1.10
2023-03-22T11:47:10.156Z,1.10
2023-03-22T11:49:42.800Z,1.10
2023-03-22T11:52:15.376Z,1.30
2023-03-22T11:54:46.397Z,1.10
2023-03-22T11:57:17.483Z,1.20
2023-03-22T11:59:49.980Z,1.10
2023-03-22T12:02:21.555Z,1.37
2023-03-22T12:04:51.850Z,1.50
2023-03-22T12:07:24.562Z,1.27
2023-03-22T12:09:54.933Z,1.20
2023-03-22T12:12:24.567Z,1.10
2023-03-22T12:14:54.679Z,1.23
2023-03-22T12:17:28.776Z,1.17
2023-03-22T12:20:02.811Z,1.20
2023-03-22T12:22:33.925Z,1.10
2023-03-22T12:25:03.651Z,1.00
2023-03-22T12:27:35.463Z,1.00
2023-03-22T12:30:08.425Z,1.10
2023-03-22T12:32:38.805Z,1.23
2023-03-22T12:35:17.211Z,1.20
2023-03-22T12:37:50.023Z,1.10
2023-03-22T12:40:22.095Z,1.20
2023-03-22T12:42:57.571Z,1.30
2023-03-22T12:45:28.941Z,1.20
2023-03-22T12:48:00.120Z,1.13
2023-03-22T12:50:33.060Z,1.20
2023-03-22T12:53:04.627Z,1.30
2023-03-22T12:55:34.407Z,1.10
2023-03-22T12:58:03.512Z,1.20
2023-03-22T13:00:35.946Z,1.27
2023-03-22T13:03:10.402Z,1.20
2023-03-22T13:05:39.707Z,1.03
2023-03-22T13:08:10.362Z,0.80
2023-03-22T13:11:06.862Z,1.00
2023-03-22T13:13:45.765Z,1.00
2023-03-22T13:16:20.272Z,1.00
2023-03-22T13:19:12.608Z,0.87
2023-03-22T13:21:43.579Z,0.90
2023-03-22T13:24:26.464Z,0.87
2023-03-22T13:26:56.196Z,0.80
2023-03-22T13:29:25.738Z,0.87
2023-03-22T13:31:58.936Z,0.90
2023-03-22T13:34:38.300Z,0.90
2023-03-22T13:37:11.019Z,0.80
2023-03-22T13:39:41.016Z,0.53
2023-03-22T13:42:18.902Z,0.80
2023-03-22T13:44:53.551Z,0.70
2023-03-22T13:47:33.025Z,0.57
2023-03-22T13:50:04.524Z,0.50
2023-03-22T13:52:40.258Z,0.47
2023-03-22T13:55:18.952Z,0.40
2023-03-22T13:57:51.984Z,0.47
2023-03-22T14:00:23.284Z,0.50
2023-03-22T14:02:52.263Z,0.40
2023-03-22T14:05:22.555Z,0.37
2023-03-22T14:07:52.399Z,0.20
2023-03-22T14:10:24.870Z,0.40
2023-03-22T14:12:54.361Z,0.37
2023-03-22T14:15:25.234Z,0.33
2023-03-22T14:17:56.021Z,0.37
2023-03-22T14:20:27.060Z,0.40
